Details From TXKF - Bermuda Intl
To MDPP - Puerto Plata Gregorio Luperon Intl
Flight Number -
Tags decoded
Created
Modified
Stats Distance 855 nm / 1,584 km
Max Altitude 0 ft / 0 m
Waypoints 4
Social Downloads 0
Likes 0
Share VATSIM

Download

Looking for another format? Having issues loading an existing format? Contact us
Advertisement - Login to hide

Notes

Requested: TXKF G432 MOFFY GRANN B891 WATRS MDPP Unmatched points: G432 GRANN

Route

TXKF MOFFY WATRS MDPP

ID Type Via Altitude Latitude Longitude Leg Dist Tot Dist Heading (true) Name
O TXKF APT - 0 ft / 0 m 32.36404˚ -64.67868˚ - 0 nm - Bermuda Intl
MOFFY FIX - 0 ft / 0 m 29.38333˚ -65.08333˚ 180 nm 180 nm 187° / 187° -
WATRS FIX - 0 ft / 0 m 21.88755˚ -67.79224˚ 473 nm 653 nm 199° / 197° -
O MDPP APT - 0 ft / 0 m 19.75790˚ -70.57003˚ 201 nm 855 nm 231° / 230° Puerto Plata Gregorio Luperon Intl

Altitude Profile

Advertisement - Login to hide

Weather


0- 5 10 15 20 25 30 35+ Temperature / ° C

Clouds and Precipitation
Forecast for 2017-12-14 18:00 UTC. Updated 16 minutes ago

Ground ~20,000 ft ~40,000 ft Winds

TXKF

Details ICAO TXKF (BDA)
Name Bermuda Intl
Region Bermuda
Timezone Unknown (UTC+0.0)
Stats Elevation 12 ft / 4 m (AMSL)
Location 32.364038° -64.678684°
Runways 1
Magnetic Variation 14.784° W

METAR

TXKF 141455Z 23015KT 9999 FEW048 BKN060 BKN300 20/12 Q1017

Decode

TAF

TAF TXKF 141131Z 1412/1512 24019KT 9999 FEW045 BKN070

Decode

Departure Runways

ID Width Length Bearing (true) Bearing (mag) Surface Threshold Offset Overrun Length
12 150 ft / 46 m 9,701 ft / 2,957 m 101.50° 116.28° Asphalt 0 ft / 0 m 553 ft / 169 m
30 150 ft / 46 m 9,701 ft / 2,957 m 281.52° 296.30° Asphalt 0 ft / 0 m 207 ft / 63 m

MDPP

Details ICAO MDPP (POP)
Name Puerto Plata Gregorio Luperon Intl
Region Dominican Republic
Timezone America/Santo_Domingo (UTC-4.0)
Stats Elevation 15 ft / 5 m (AMSL)
Location 19.757900° -70.570035°
Runways 1
Magnetic Variation 11.228° W

METAR

MDPP 141500Z 06010KT 9999 FEW018 27/25 Q1016

Decode

TAF

Not found

Destination Runways

ID Width Length Bearing (true) Bearing (mag) Surface Threshold Offset Overrun Length
08 151 ft / 46 m 10,101 ft / 3,079 m 72.95° 84.18° Asphalt 0 ft / 0 m 0 ft / 0 m
26 151 ft / 46 m 10,101 ft / 3,079 m 252.95° 264.18° Asphalt 0 ft / 0 m 0 ft / 0 m